RYR3XX EGGP-EPPO
Flight info
| Callsign | RYR3XX |
|---|---|
| Flight time | 1h 56m |
| Altitude | 37000 |
| Route | BARTN1V BARTN L975 DESIG L603 LAMSO DCT NEBUN DCT RADEL/N0460F310 L619 DENKO DENKO1M |
| Aircraft | 738/H-V/N |
Departure
| Time | 2026-04-22 08:13 |
|---|---|
| Airport | Liverpool John Lennon Airport (EGGP) |
Arrival
| Time | 2026-04-22 10:09 |
|---|---|
| Airport | Poznań-Ławica Airport (EPPO) |
| Time | Latitude | Longitude | Altitude | Speed | Heading |
|---|---|---|---|---|---|
| 2026-04-22 08:03 | 53.33657 | -2.85654 | 88 ft | 0 kts | 355° |
| 2026-04-22 08:07 | 53.33643 | -2.85652 | 66 ft | 2 kts | 355° |
| 2026-04-22 08:07 | 53.33627 | -2.85650 | 96 ft | 2 kts | 340° |
| 2026-04-22 08:07 | 53.33613 | -2.85637 | 88 ft | 2 kts | 310° |
| 2026-04-22 08:08 | 53.33608 | -2.85612 | 89 ft | 2 kts | 269° |
| 2026-04-22 08:08 | 53.33608 | -2.85603 | 88 ft | 0 kts | 266° |
| 2026-04-22 08:10 | 53.33608 | -2.85607 | 88 ft | 0 kts | 266° |
| 2026-04-22 08:11 | 53.33607 | -2.85617 | 90 ft | 2 kts | 260° |
| 2026-04-22 08:11 | 53.33590 | -2.85647 | 91 ft | 5 kts | 202° |
| 2026-04-22 08:11 | 53.33544 | -2.85650 | 88 ft | 8 kts | 179° |
| 2026-04-22 08:11 | 53.33497 | -2.85712 | 90 ft | 11 kts | 256° |
| 2026-04-22 08:12 | 53.33488 | -2.85857 | 88 ft | 14 kts | 265° |
| 2026-04-22 08:12 | 53.33479 | -2.86040 | 88 ft | 18 kts | 265° |
| 2026-04-22 08:12 | 53.33469 | -2.86263 | 90 ft | 21 kts | 265° |
| 2026-04-22 08:12 | 53.33450 | -2.86404 | 91 ft | 10 kts | 231° |
| 2026-04-22 08:13 | 53.33377 | -2.86422 | 88 ft | 15 kts | 168° |
| 2026-04-22 08:13 | 53.33318 | -2.85879 | 88 ft | 90 kts | 83° |
| 2026-04-22 08:13 | 53.33383 | -2.84445 | 102 ft | 152 kts | 85° |
| 2026-04-22 08:13 | 53.33422 | -2.82681 | 941 ft | 147 kts | 84° |
| 2026-04-22 08:14 | 53.33577 | -2.81077 | 2034 ft | 140 kts | 85° |
| 2026-04-22 08:14 | 53.33742 | -2.79444 | 2760 ft | 152 kts | 72° |
| 2026-04-22 08:14 | 53.34638 | -2.78101 | 3065 ft | 204 kts | 26° |
| 2026-04-22 08:14 | 53.36187 | -2.77993 | 3300 ft | 241 kts | 1° |
| 2026-04-22 08:15 | 53.37912 | -2.78206 | 3674 ft | 260 kts | 2° |
| 2026-04-22 08:15 | 53.39779 | -2.78377 | 3996 ft | 274 kts | 2° |
| 2026-04-22 08:15 | 53.41665 | -2.78428 | 3975 ft | 270 kts | 14° |
| 2026-04-22 08:15 | 53.43293 | -2.77186 | 4041 ft | 252 kts | 47° |
| 2026-04-22 08:16 | 53.44362 | -2.74892 | 4537 ft | 249 kts | 68° |
| 2026-04-22 08:16 | 53.44879 | -2.72161 | 5534 ft | 244 kts | 82° |
| 2026-04-22 08:16 | 53.45165 | -2.69341 | 6419 ft | 248 kts | 84° |
| 2026-04-22 08:16 | 53.45416 | -2.66432 | 7230 ft | 253 kts | 85° |
| 2026-04-22 08:17 | 53.45663 | -2.63519 | 8036 ft | 256 kts | 84° |
| 2026-04-22 08:17 | 53.45921 | -2.60533 | 8889 ft | 260 kts | 84° |
| 2026-04-22 08:17 | 53.46188 | -2.57481 | 9723 ft | 264 kts | 84° |
| 2026-04-22 08:17 | 53.46460 | -2.54425 | 10464 ft | 271 kts | 84° |
| 2026-04-22 08:18 | 53.46748 | -2.51204 | 10917 ft | 288 kts | 84° |
| 2026-04-22 08:18 | 53.47057 | -2.47743 | 11109 ft | 312 kts | 84° |
| 2026-04-22 08:18 | 53.47388 | -2.44057 | 11281 ft | 335 kts | 83° |
| 2026-04-22 08:18 | 53.47747 | -2.40072 | 11551 ft | 353 kts | 84° |
| 2026-04-22 08:19 | 53.48121 | -2.35948 | 12104 ft | 361 kts | 84° |
| 2026-04-22 08:19 | 53.48500 | -2.31756 | 12735 ft | 366 kts | 84° |
| 2026-04-22 08:19 | 53.48882 | -2.27522 | 13544 ft | 366 kts | 83° |
| 2026-04-22 08:19 | 53.49260 | -2.23291 | 14182 ft | 372 kts | 83° |
| 2026-04-22 08:20 | 53.49645 | -2.18951 | 14747 ft | 376 kts | 84° |
| 2026-04-22 08:20 | 53.50051 | -2.14584 | 15463 ft | 378 kts | 82° |
| 2026-04-22 08:20 | 53.50509 | -2.10206 | 16014 ft | 383 kts | 82° |
| 2026-04-22 08:20 | 53.50988 | -2.05754 | 16588 ft | 387 kts | 82° |
| 2026-04-22 08:21 | 53.51455 | -2.01369 | 17268 ft | 388 kts | 82° |
| 2026-04-22 08:21 | 53.51925 | -1.96856 | 17760 ft | 394 kts | 83° |
| 2026-04-22 08:21 | 53.52310 | -1.92276 | 18388 ft | 395 kts | 88° |
| 2026-04-22 08:21 | 53.52241 | -1.87655 | 18901 ft | 398 kts | 97° |
| 2026-04-22 08:22 | 53.51947 | -1.84591 | 19075 ft | 403 kts | 105° |
| 2026-04-22 08:22 | 53.50892 | -1.78547 | 19689 ft | 408 kts | 108° |
| 2026-04-22 08:22 | 53.50324 | -1.75447 | 19882 ft | 414 kts | 108° |
| 2026-04-22 08:22 | 53.49482 | -1.70810 | 20224 ft | 421 kts | 107° |
| 2026-04-22 08:23 | 53.48637 | -1.66055 | 20554 ft | 428 kts | 107° |
| 2026-04-22 08:23 | 53.47786 | -1.61216 | 20929 ft | 434 kts | 106° |
| 2026-04-22 08:23 | 53.46926 | -1.56336 | 21326 ft | 438 kts | 106° |
| 2026-04-22 08:23 | 53.46055 | -1.51479 | 21915 ft | 437 kts | 106° |
| 2026-04-22 08:24 | 53.45171 | -1.46585 | 22432 ft | 439 kts | 106° |
| 2026-04-22 08:24 | 53.44275 | -1.41640 | 22757 ft | 444 kts | 106° |
| 2026-04-22 08:24 | 53.43380 | -1.36696 | 23118 ft | 449 kts | 106° |
| 2026-04-22 08:24 | 53.42464 | -1.31652 | 23420 ft | 455 kts | 106° |
| 2026-04-22 08:25 | 53.41537 | -1.26544 | 23730 ft | 460 kts | 105° |
| 2026-04-22 08:25 | 53.40628 | -1.21384 | 24193 ft | 460 kts | 105° |
| 2026-04-22 08:25 | 53.39713 | -1.16244 | 24651 ft | 460 kts | 106° |
| 2026-04-22 08:25 | 53.38785 | -1.11154 | 24893 ft | 465 kts | 106° |
| 2026-04-22 08:26 | 53.37820 | -1.05925 | 25138 ft | 470 kts | 106° |
| 2026-04-22 08:26 | 53.36846 | -1.00671 | 25457 ft | 472 kts | 107° |
| 2026-04-22 08:26 | 53.35870 | -0.95416 | 25870 ft | 472 kts | 107° |
| 2026-04-22 08:26 | 53.34907 | -0.90231 | 26210 ft | 473 kts | 106° |
| 2026-04-22 08:27 | 53.33926 | -0.84948 | 26505 ft | 476 kts | 107° |
| 2026-04-22 08:27 | 53.32929 | -0.79589 | 26703 ft | 481 kts | 107° |
| 2026-04-22 08:27 | 53.31927 | -0.74215 | 26880 ft | 485 kts | 106° |
| 2026-04-22 08:27 | 53.30919 | -0.68828 | 27126 ft | 488 kts | 106° |
| 2026-04-22 08:28 | 53.29905 | -0.63442 | 27386 ft | 491 kts | 106° |
| 2026-04-22 08:28 | 53.28876 | -0.57989 | 27630 ft | 493 kts | 106° |
| 2026-04-22 08:28 | 53.27841 | -0.52517 | 27919 ft | 495 kts | 106° |
| 2026-04-22 08:28 | 53.26795 | -0.47003 | 28263 ft | 495 kts | 106° |
| 2026-04-22 08:29 | 53.25751 | -0.41505 | 28584 ft | 496 kts | 106° |
| 2026-04-22 08:29 | 53.24722 | -0.36062 | 28852 ft | 498 kts | 105° |
| 2026-04-22 08:29 | 53.23672 | -0.30512 | 29124 ft | 500 kts | 105° |
| 2026-04-22 08:29 | 53.22612 | -0.24950 | 29456 ft | 501 kts | 106° |
| 2026-04-22 08:30 | 53.21553 | -0.19460 | 29812 ft | 501 kts | 106° |
| 2026-04-22 08:30 | 53.20478 | -0.13913 | 30128 ft | 502 kts | 105° |
| 2026-04-22 08:30 | 53.19401 | -0.08355 | 30426 ft | 504 kts | 105° |
| 2026-04-22 08:30 | 53.18316 | -0.02770 | 30719 ft | 504 kts | 105° |
| 2026-04-22 08:31 | 53.17242 | 0.02747 | 31556 ft | 488 kts | 105° |
| 2026-04-22 08:31 | 53.16221 | 0.07988 | 32382 ft | 477 kts | 106° |
| 2026-04-22 08:31 | 53.14158 | 0.18586 | 32649 ft | 486 kts | 106° |
| 2026-04-22 08:32 | 53.13109 | 0.23960 | 32829 ft | 488 kts | 106° |
| 2026-04-22 08:32 | 53.12055 | 0.29337 | 33204 ft | 485 kts | 106° |
| 2026-04-22 08:32 | 53.11007 | 0.34665 | 33671 ft | 480 kts | 106° |
| 2026-04-22 08:32 | 53.09977 | 0.39882 | 34113 ft | 477 kts | 107° |
| 2026-04-22 08:33 | 53.08942 | 0.45115 | 34442 ft | 475 kts | 107° |
| 2026-04-22 08:33 | 53.07901 | 0.50361 | 34660 ft | 476 kts | 107° |
| 2026-04-22 08:33 | 53.06872 | 0.55535 | 34979 ft | 472 kts | 107° |
| 2026-04-22 08:33 | 53.05842 | 0.60703 | 35365 ft | 468 kts | 107° |
| 2026-04-22 08:34 | 53.04811 | 0.65859 | 35506 ft | 470 kts | 107° |
| 2026-04-22 08:34 | 53.03774 | 0.71033 | 35651 ft | 472 kts | 107° |
| 2026-04-22 08:34 | 53.02749 | 0.76132 | 35962 ft | 469 kts | 107° |
| 2026-04-22 08:34 | 53.01711 | 0.81288 | 36113 ft | 470 kts | 107° |
| 2026-04-22 08:35 | 53.00667 | 0.86460 | 36255 ft | 471 kts | 107° |
| 2026-04-22 08:35 | 52.99621 | 0.91633 | 36502 ft | 470 kts | 107° |
| 2026-04-22 08:35 | 52.98575 | 0.96784 | 36657 ft | 471 kts | 107° |
| 2026-04-22 08:36 | 52.96913 | 1.07254 | 37114 ft | 467 kts | 99° |
| 2026-04-22 08:36 | 52.96325 | 1.12506 | 37414 ft | 464 kts | 98° |
| 2026-04-22 08:36 | 52.95758 | 1.17784 | 37403 ft | 467 kts | 98° |
| 2026-04-22 08:37 | 52.94593 | 1.28392 | 37417 ft | 470 kts | 98° |
| 2026-04-22 08:37 | 52.93364 | 1.39070 | 37428 ft | 470 kts | 100° |
| 2026-04-22 08:38 | 52.92109 | 1.49657 | 37420 ft | 471 kts | 99° |
| 2026-04-22 08:38 | 52.90834 | 1.60293 | 37423 ft | 469 kts | 99° |
| 2026-04-22 08:39 | 52.89549 | 1.70906 | 37423 ft | 467 kts | 100° |
| 2026-04-22 08:39 | 52.88268 | 1.81404 | 37412 ft | 465 kts | 100° |
| 2026-04-22 08:40 | 52.86988 | 1.91858 | 37405 ft | 463 kts | 99° |
| 2026-04-22 08:40 | 52.85707 | 2.02263 | 37425 ft | 461 kts | 100° |
| 2026-04-22 08:41 | 52.84411 | 2.12671 | 37415 ft | 460 kts | 100° |
| 2026-04-22 08:41 | 52.83124 | 2.22966 | 37406 ft | 459 kts | 100° |
| 2026-04-22 08:42 | 52.81820 | 2.33289 | 37411 ft | 457 kts | 101° |
| 2026-04-22 08:42 | 52.80516 | 2.43551 | 37412 ft | 457 kts | 101° |
| 2026-04-22 08:43 | 52.79201 | 2.53894 | 37430 ft | 457 kts | 99° |
| 2026-04-22 08:43 | 52.77871 | 2.64139 | 37421 ft | 457 kts | 100° |
| 2026-04-22 08:44 | 52.76533 | 2.74408 | 37413 ft | 457 kts | 100° |
| 2026-04-22 08:44 | 52.75198 | 2.84653 | 37412 ft | 457 kts | 99° |
| 2026-04-22 08:45 | 52.73885 | 2.94918 | 37415 ft | 457 kts | 98° |
| 2026-04-22 08:45 | 52.73611 | 3.05276 | 37393 ft | 452 kts | 82° |
| 2026-04-22 08:46 | 52.74408 | 3.15575 | 37401 ft | 452 kts | 79° |
| 2026-04-22 08:46 | 52.75227 | 3.25810 | 37413 ft | 452 kts | 81° |
| 2026-04-22 08:47 | 52.76008 | 3.36096 | 37422 ft | 452 kts | 82° |
| 2026-04-22 08:47 | 52.76759 | 3.46368 | 37422 ft | 452 kts | 81° |
| 2026-04-22 08:48 | 52.77498 | 3.56690 | 37432 ft | 452 kts | 82° |
| 2026-04-22 08:48 | 52.78225 | 3.67017 | 37429 ft | 452 kts | 82° |
| 2026-04-22 08:49 | 52.78944 | 3.77365 | 37412 ft | 452 kts | 82° |
| 2026-04-22 08:49 | 52.79651 | 3.87660 | 37429 ft | 451 kts | 82° |
| 2026-04-22 08:50 | 52.80346 | 3.97913 | 37418 ft | 451 kts | 82° |
| 2026-04-22 08:50 | 52.81035 | 4.08219 | 37426 ft | 450 kts | 82° |
| 2026-04-22 08:51 | 52.81714 | 4.18504 | 37416 ft | 449 kts | 82° |
| 2026-04-22 08:51 | 52.82378 | 4.28711 | 37414 ft | 449 kts | 82° |
| 2026-04-22 08:52 | 52.83038 | 4.38994 | 37414 ft | 448 kts | 82° |
| 2026-04-22 08:52 | 52.83687 | 4.49234 | 37420 ft | 447 kts | 82° |
| 2026-04-22 08:53 | 52.84327 | 4.59473 | 37424 ft | 447 kts | 82° |
| 2026-04-22 08:53 | 52.84954 | 4.69650 | 37426 ft | 447 kts | 82° |
| 2026-04-22 08:54 | 52.85577 | 4.79906 | 37432 ft | 447 kts | 82° |
| 2026-04-22 08:54 | 52.86186 | 4.90085 | 37429 ft | 447 kts | 83° |
| 2026-04-22 08:55 | 52.86793 | 5.00375 | 37423 ft | 447 kts | 83° |
| 2026-04-22 08:55 | 52.87385 | 5.10575 | 37434 ft | 448 kts | 82° |
| 2026-04-22 08:56 | 52.87974 | 5.20856 | 37426 ft | 448 kts | 83° |
| 2026-04-22 08:56 | 52.88553 | 5.31145 | 37426 ft | 448 kts | 83° |
| 2026-04-22 08:57 | 52.89121 | 5.41373 | 37431 ft | 448 kts | 83° |
| 2026-04-22 08:57 | 52.89683 | 5.51670 | 37421 ft | 449 kts | 83° |
| 2026-04-22 08:58 | 52.90236 | 5.61973 | 37433 ft | 448 kts | 83° |
| 2026-04-22 08:58 | 52.90781 | 5.72290 | 37421 ft | 448 kts | 83° |
| 2026-04-22 08:59 | 52.91313 | 5.82534 | 37423 ft | 448 kts | 83° |
| 2026-04-22 08:59 | 52.91839 | 5.92837 | 37424 ft | 447 kts | 83° |
| 2026-04-22 09:00 | 52.92352 | 6.03061 | 37423 ft | 447 kts | 83° |
| 2026-04-22 09:00 | 52.92860 | 6.13355 | 37438 ft | 446 kts | 83° |
| 2026-04-22 09:01 | 52.93355 | 6.23560 | 37423 ft | 445 kts | 83° |
| 2026-04-22 09:01 | 52.93840 | 6.33758 | 37427 ft | 444 kts | 83° |
| 2026-04-22 09:02 | 52.94318 | 6.44003 | 37425 ft | 444 kts | 83° |
| 2026-04-22 09:02 | 52.94784 | 6.54157 | 37423 ft | 443 kts | 83° |
| 2026-04-22 09:03 | 52.95243 | 6.64350 | 37440 ft | 443 kts | 84° |
| 2026-04-22 09:03 | 52.95693 | 6.74549 | 37427 ft | 442 kts | 84° |
| 2026-04-22 09:04 | 52.96131 | 6.84687 | 37426 ft | 442 kts | 84° |
| 2026-04-22 09:04 | 52.96564 | 6.94885 | 37422 ft | 441 kts | 84° |
| 2026-04-22 09:05 | 52.96984 | 7.04999 | 37421 ft | 441 kts | 84° |
| 2026-04-22 09:05 | 52.97396 | 7.15130 | 37426 ft | 441 kts | 84° |
| 2026-04-22 09:06 | 52.97802 | 7.25305 | 37415 ft | 441 kts | 84° |
| 2026-04-22 09:06 | 52.98199 | 7.35503 | 37407 ft | 441 kts | 84° |
| 2026-04-22 09:07 | 52.98585 | 7.45623 | 37408 ft | 441 kts | 84° |
| 2026-04-22 09:07 | 52.98901 | 7.54092 | 37408 ft | 441 kts | 84° |
| 2026-04-22 09:08 | 52.99272 | 7.64273 | 37427 ft | 441 kts | 84° |
| 2026-04-22 09:08 | 52.99635 | 7.74443 | 37411 ft | 442 kts | 84° |
| 2026-04-22 09:09 | 52.99990 | 7.84627 | 37406 ft | 441 kts | 84° |
| 2026-04-22 09:09 | 53.00334 | 7.94779 | 37407 ft | 441 kts | 84° |
| 2026-04-22 09:10 | 53.00671 | 8.04943 | 37408 ft | 441 kts | 84° |
| 2026-04-22 09:10 | 53.00999 | 8.15118 | 37427 ft | 440 kts | 84° |
| 2026-04-22 09:11 | 53.01318 | 8.25301 | 37407 ft | 440 kts | 85° |
| 2026-04-22 09:11 | 53.01627 | 8.35404 | 37400 ft | 440 kts | 85° |
| 2026-04-22 09:12 | 53.01927 | 8.45526 | 37422 ft | 440 kts | 85° |
| 2026-04-22 09:12 | 53.02221 | 8.55715 | 37425 ft | 440 kts | 85° |
| 2026-04-22 09:13 | 53.02504 | 8.65854 | 37445 ft | 439 kts | 85° |
| 2026-04-22 09:13 | 53.02779 | 8.75991 | 37430 ft | 439 kts | 85° |
| 2026-04-22 09:14 | 53.03045 | 8.86109 | 37428 ft | 439 kts | 85° |
| 2026-04-22 09:14 | 53.03301 | 8.96195 | 37428 ft | 439 kts | 85° |
| 2026-04-22 09:15 | 53.03551 | 9.06376 | 37420 ft | 439 kts | 85° |
| 2026-04-22 09:15 | 53.03790 | 9.16448 | 37414 ft | 439 kts | 85° |
| 2026-04-22 09:16 | 53.04021 | 9.26592 | 37416 ft | 439 kts | 85° |
| 2026-04-22 09:16 | 53.04245 | 9.36735 | 37405 ft | 439 kts | 85° |
| 2026-04-22 09:17 | 53.04458 | 9.46854 | 37397 ft | 439 kts | 86° |
| 2026-04-22 09:17 | 53.04664 | 9.56955 | 37400 ft | 438 kts | 86° |
| 2026-04-22 09:18 | 53.04861 | 9.67108 | 37394 ft | 438 kts | 86° |
| 2026-04-22 09:18 | 53.05048 | 9.77182 | 37400 ft | 438 kts | 86° |
| 2026-04-22 09:19 | 53.05228 | 9.87320 | 37398 ft | 438 kts | 86° |
| 2026-04-22 09:19 | 53.05399 | 9.97458 | 37398 ft | 438 kts | 86° |
| 2026-04-22 09:20 | 53.05561 | 10.07550 | 37404 ft | 438 kts | 86° |
| 2026-04-22 09:20 | 53.05716 | 10.17692 | 37399 ft | 438 kts | 86° |
| 2026-04-22 09:21 | 53.05860 | 10.27769 | 37405 ft | 439 kts | 86° |
| 2026-04-22 09:21 | 53.05997 | 10.37922 | 37383 ft | 439 kts | 86° |
| 2026-04-22 09:22 | 53.06125 | 10.48043 | 37391 ft | 439 kts | 86° |
| 2026-04-22 09:22 | 53.06245 | 10.58195 | 37392 ft | 439 kts | 86° |
| 2026-04-22 09:23 | 53.06356 | 10.68367 | 37379 ft | 439 kts | 86° |
| 2026-04-22 09:23 | 53.06459 | 10.78469 | 37395 ft | 439 kts | 86° |
| 2026-04-22 09:24 | 53.06553 | 10.88623 | 37382 ft | 439 kts | 86° |
| 2026-04-22 09:24 | 53.06638 | 10.98738 | 37374 ft | 439 kts | 86° |
| 2026-04-22 09:25 | 53.06715 | 11.08888 | 37368 ft | 438 kts | 86° |
| 2026-04-22 09:25 | 53.06784 | 11.18998 | 37370 ft | 438 kts | 87° |
| 2026-04-22 09:26 | 53.06521 | 11.29142 | 37387 ft | 439 kts | 92° |
| 2026-04-22 09:26 | 53.05903 | 11.39198 | 37372 ft | 439 kts | 93° |
| 2026-04-22 09:27 | 53.05266 | 11.49330 | 37363 ft | 439 kts | 93° |
| 2026-04-22 09:27 | 53.04661 | 11.59428 | 37367 ft | 439 kts | 92° |
| 2026-04-22 09:28 | 53.04069 | 11.69491 | 37359 ft | 438 kts | 92° |
| 2026-04-22 09:28 | 53.03473 | 11.79549 | 37372 ft | 439 kts | 92° |
| 2026-04-22 09:29 | 53.02863 | 11.89671 | 37359 ft | 439 kts | 92° |
| 2026-04-22 09:29 | 53.02249 | 11.99714 | 37356 ft | 439 kts | 93° |
| 2026-04-22 09:30 | 53.01621 | 12.09831 | 37350 ft | 439 kts | 93° |
| 2026-04-22 09:30 | 53.00987 | 12.19907 | 37352 ft | 439 kts | 93° |
| 2026-04-22 09:31 | 53.00346 | 12.29962 | 37357 ft | 440 kts | 93° |
| 2026-04-22 09:31 | 52.99692 | 12.40091 | 37350 ft | 440 kts | 93° |
| 2026-04-22 09:32 | 52.99032 | 12.50155 | 37328 ft | 440 kts | 93° |
| 2026-04-22 09:32 | 52.98361 | 12.60275 | 37338 ft | 440 kts | 93° |
| 2026-04-22 09:33 | 52.97684 | 12.70339 | 37330 ft | 440 kts | 93° |
| 2026-04-22 09:33 | 52.96996 | 12.80448 | 37353 ft | 440 kts | 93° |
| 2026-04-22 09:34 | 52.96303 | 12.90495 | 37332 ft | 440 kts | 93° |
| 2026-04-22 09:34 | 52.95599 | 13.00608 | 37330 ft | 440 kts | 94° |
| 2026-04-22 09:35 | 52.94654 | 13.15701 | 37332 ft | 438 kts | 90° |
| 2026-04-22 09:35 | 52.94328 | 13.25828 | 37319 ft | 438 kts | 90° |
| 2026-04-22 09:36 | 52.93965 | 13.35862 | 37325 ft | 439 kts | 91° |
| 2026-04-22 09:36 | 52.93572 | 13.45985 | 37319 ft | 438 kts | 91° |
| 2026-04-22 09:37 | 52.93178 | 13.56032 | 37318 ft | 438 kts | 91° |
| 2026-04-22 09:37 | 52.92777 | 13.66081 | 37318 ft | 438 kts | 91° |
| 2026-04-22 09:38 | 52.92356 | 13.76182 | 37316 ft | 438 kts | 91° |
| 2026-04-22 09:38 | 52.91929 | 13.86267 | 37317 ft | 438 kts | 91° |
| 2026-04-22 09:39 | 52.91496 | 13.96302 | 37312 ft | 438 kts | 91° |
| 2026-04-22 09:39 | 52.91039 | 14.06314 | 37306 ft | 438 kts | 91° |
| 2026-04-22 09:40 | 52.90568 | 14.16389 | 37301 ft | 437 kts | 91° |
| 2026-04-22 09:40 | 52.90100 | 14.26447 | 37304 ft | 437 kts | 91° |
| 2026-04-22 09:41 | 52.89627 | 14.36449 | 37309 ft | 437 kts | 91° |
| 2026-04-22 09:41 | 52.89385 | 14.41485 | 37053 ft | 439 kts | 92° |
| 2026-04-22 09:41 | 52.89141 | 14.46496 | 36787 ft | 431 kts | 92° |
| 2026-04-22 09:42 | 52.88902 | 14.51363 | 36252 ft | 428 kts | 92° |
| 2026-04-22 09:42 | 52.88659 | 14.56306 | 35623 ft | 428 kts | 92° |
| 2026-04-22 09:42 | 52.88416 | 14.61228 | 34984 ft | 428 kts | 92° |
| 2026-04-22 09:42 | 52.88173 | 14.66097 | 34334 ft | 429 kts | 92° |
| 2026-04-22 09:43 | 52.87925 | 14.71034 | 33526 ft | 429 kts | 92° |
| 2026-04-22 09:43 | 52.87674 | 14.75964 | 32781 ft | 428 kts | 92° |
| 2026-04-22 09:43 | 52.87422 | 14.80889 | 32047 ft | 427 kts | 92° |
| 2026-04-22 09:43 | 52.87169 | 14.85793 | 31303 ft | 426 kts | 93° |
| 2026-04-22 09:44 | 52.86919 | 14.90635 | 30530 ft | 426 kts | 93° |
| 2026-04-22 09:44 | 52.86662 | 14.95533 | 29632 ft | 426 kts | 93° |
| 2026-04-22 09:44 | 52.86404 | 15.00420 | 28765 ft | 425 kts | 93° |
| 2026-04-22 09:44 | 52.86143 | 15.05284 | 27895 ft | 423 kts | 93° |
| 2026-04-22 09:45 | 52.85881 | 15.10122 | 27262 ft | 418 kts | 93° |
| 2026-04-22 09:45 | 52.85622 | 15.14851 | 26601 ft | 414 kts | 93° |
| 2026-04-22 09:45 | 52.85362 | 15.19587 | 25964 ft | 410 kts | 92° |
| 2026-04-22 09:45 | 52.85104 | 15.24257 | 25348 ft | 406 kts | 92° |
| 2026-04-22 09:46 | 52.84846 | 15.28906 | 24748 ft | 402 kts | 92° |
| 2026-04-22 09:46 | 52.84656 | 15.32320 | 24304 ft | 400 kts | 92° |
| 2026-04-22 09:48 | 52.84508 | 15.34958 | 23954 ft | 398 kts | 92° |
| 2026-04-22 09:48 | 52.84280 | 15.39016 | 23331 ft | 396 kts | 92° |
| 2026-04-22 09:48 | 52.84142 | 15.41448 | 22964 ft | 394 kts | 92° |
| 2026-04-22 09:49 | 52.83946 | 15.44906 | 22484 ft | 391 kts | 92° |
| 2026-04-22 09:49 | 52.83693 | 15.49325 | 21877 ft | 388 kts | 92° |
| 2026-04-22 09:50 | 52.83438 | 15.53752 | 21274 ft | 385 kts | 92° |
| 2026-04-22 09:50 | 52.83184 | 15.58155 | 20677 ft | 384 kts | 92° |
| 2026-04-22 09:50 | 52.82926 | 15.62606 | 20088 ft | 393 kts | 92° |
| 2026-04-22 09:50 | 52.82662 | 15.67147 | 19475 ft | 397 kts | 92° |
| 2026-04-22 09:51 | 52.82394 | 15.71673 | 18849 ft | 394 kts | 92° |
| 2026-04-22 09:51 | 52.82130 | 15.76112 | 18203 ft | 390 kts | 92° |
| 2026-04-22 09:51 | 52.81862 | 15.80569 | 17535 ft | 387 kts | 92° |
| 2026-04-22 09:51 | 52.81593 | 15.84967 | 17129 ft | 378 kts | 92° |
| 2026-04-22 09:52 | 52.81307 | 15.89187 | 16892 ft | 371 kts | 92° |
| 2026-04-22 09:52 | 52.81006 | 15.93502 | 16665 ft | 382 kts | 92° |
| 2026-04-22 09:52 | 52.80697 | 15.97907 | 16436 ft | 386 kts | 92° |
| 2026-04-22 09:52 | 52.80387 | 16.02316 | 16170 ft | 385 kts | 93° |
| 2026-04-22 09:53 | 52.80078 | 16.06654 | 15918 ft | 382 kts | 93° |
| 2026-04-22 09:53 | 52.79766 | 16.11011 | 15668 ft | 381 kts | 93° |
| 2026-04-22 09:53 | 52.79457 | 16.15348 | 15424 ft | 379 kts | 93° |
| 2026-04-22 09:53 | 52.79147 | 16.19682 | 15178 ft | 378 kts | 93° |
| 2026-04-22 09:54 | 52.78838 | 16.23988 | 14937 ft | 378 kts | 93° |
| 2026-04-22 09:54 | 52.78532 | 16.28249 | 14701 ft | 377 kts | 93° |
| 2026-04-22 09:54 | 52.78219 | 16.32561 | 14474 ft | 377 kts | 93° |
| 2026-04-22 09:54 | 52.77905 | 16.36867 | 14228 ft | 377 kts | 93° |
| 2026-04-22 09:55 | 52.77592 | 16.41165 | 13968 ft | 376 kts | 92° |
| 2026-04-22 09:55 | 52.77279 | 16.45456 | 13698 ft | 375 kts | 93° |
| 2026-04-22 09:55 | 52.76967 | 16.49732 | 13450 ft | 374 kts | 93° |
| 2026-04-22 09:55 | 52.76659 | 16.53935 | 13199 ft | 372 kts | 93° |
| 2026-04-22 09:56 | 52.76346 | 16.58178 | 12957 ft | 371 kts | 93° |
| 2026-04-22 09:56 | 52.76034 | 16.62405 | 12714 ft | 369 kts | 93° |
| 2026-04-22 09:56 | 52.75720 | 16.66630 | 12466 ft | 366 kts | 93° |
| 2026-04-22 09:56 | 52.75416 | 16.70681 | 12221 ft | 354 kts | 92° |
| 2026-04-22 09:57 | 52.75117 | 16.74651 | 11995 ft | 342 kts | 92° |
| 2026-04-22 09:57 | 52.74828 | 16.78489 | 11774 ft | 331 kts | 92° |
| 2026-04-22 09:57 | 52.74641 | 16.80968 | 11646 ft | 324 kts | 92° |
| 2026-04-22 09:57 | 52.74362 | 16.84622 | 11457 ft | 316 kts | 92° |
| 2026-04-22 09:58 | 52.74027 | 16.88161 | 11235 ft | 311 kts | 101° |
| 2026-04-22 09:58 | 52.72999 | 16.91303 | 11038 ft | 315 kts | 126° |
| 2026-04-22 09:58 | 52.71312 | 16.93596 | 10840 ft | 317 kts | 148° |
| 2026-04-22 09:58 | 52.69291 | 16.95029 | 10665 ft | 312 kts | 155° |
| 2026-04-22 09:59 | 52.67309 | 16.96302 | 10456 ft | 307 kts | 155° |
| 2026-04-22 09:59 | 52.65335 | 16.97580 | 10235 ft | 302 kts | 155° |
| 2026-04-22 09:59 | 52.63359 | 16.98784 | 9912 ft | 302 kts | 156° |
| 2026-04-22 09:59 | 52.61375 | 16.99936 | 9584 ft | 302 kts | 157° |
| 2026-04-22 10:00 | 52.59416 | 17.01067 | 9266 ft | 300 kts | 157° |
| 2026-04-22 10:00 | 52.57445 | 17.02210 | 8927 ft | 299 kts | 157° |
| 2026-04-22 10:00 | 52.55488 | 17.03352 | 8628 ft | 299 kts | 157° |
| 2026-04-22 10:00 | 52.53528 | 17.04499 | 8295 ft | 298 kts | 157° |
| 2026-04-22 10:01 | 52.51571 | 17.05644 | 7985 ft | 297 kts | 157° |
| 2026-04-22 10:01 | 52.49626 | 17.06781 | 7679 ft | 296 kts | 157° |
| 2026-04-22 10:01 | 52.47741 | 17.08110 | 7341 ft | 292 kts | 141° |
| 2026-04-22 10:01 | 52.46404 | 17.10452 | 6925 ft | 285 kts | 116° |
| 2026-04-22 10:02 | 52.45668 | 17.13423 | 6538 ft | 280 kts | 102° |
| 2026-04-22 10:02 | 52.45083 | 17.16485 | 6186 ft | 280 kts | 103° |
| 2026-04-22 10:02 | 52.44497 | 17.19533 | 5856 ft | 279 kts | 103° |
| 2026-04-22 10:02 | 52.43907 | 17.22570 | 5547 ft | 278 kts | 103° |
| 2026-04-22 10:03 | 52.43144 | 17.25454 | 5197 ft | 284 kts | 122° |
| 2026-04-22 10:03 | 52.41600 | 17.27518 | 4965 ft | 290 kts | 154° |
| 2026-04-22 10:03 | 52.39643 | 17.28084 | 4809 ft | 286 kts | 184° |
| 2026-04-22 10:03 | 52.37749 | 17.27390 | 4702 ft | 278 kts | 199° |
| 2026-04-22 10:04 | 52.36089 | 17.25892 | 4515 ft | 269 kts | 229° |
| 2026-04-22 10:04 | 52.35151 | 17.23360 | 4337 ft | 257 kts | 256° |
| 2026-04-22 10:04 | 52.34949 | 17.20495 | 3988 ft | 251 kts | 283° |
| 2026-04-22 10:04 | 52.35391 | 17.17794 | 3678 ft | 249 kts | 290° |
| 2026-04-22 10:05 | 52.35911 | 17.15088 | 3387 ft | 247 kts | 291° |
| 2026-04-22 10:05 | 52.36415 | 17.12491 | 3447 ft | 233 kts | 291° |
| 2026-04-22 10:05 | 52.36860 | 17.10015 | 3461 ft | 219 kts | 289° |
| 2026-04-22 10:05 | 52.37297 | 17.07713 | 3302 ft | 207 kts | 293° |
| 2026-04-22 10:06 | 52.37737 | 17.05493 | 3053 ft | 204 kts | 292° |
| 2026-04-22 10:06 | 52.38150 | 17.03334 | 2783 ft | 191 kts | 292° |
| 2026-04-22 10:06 | 52.38539 | 17.01302 | 2520 ft | 186 kts | 291° |
| 2026-04-22 10:06 | 52.38911 | 16.99336 | 2252 ft | 180 kts | 290° |
| 2026-04-22 10:07 | 52.39273 | 16.97446 | 1986 ft | 169 kts | 290° |
| 2026-04-22 10:07 | 52.39598 | 16.95718 | 1809 ft | 149 kts | 289° |
| 2026-04-22 10:07 | 52.39889 | 16.94145 | 1567 ft | 143 kts | 290° |
| 2026-04-22 10:07 | 52.40182 | 16.92657 | 1414 ft | 134 kts | 290° |
| 2026-04-22 10:08 | 52.40441 | 16.91222 | 1387 ft | 135 kts | 289° |
| 2026-04-22 10:08 | 52.40712 | 16.89705 | 1360 ft | 142 kts | 290° |
| 2026-04-22 10:08 | 52.41007 | 16.88141 | 1189 ft | 145 kts | 290° |
| 2026-04-22 10:08 | 52.41323 | 16.86588 | 837 ft | 141 kts | 289° |
| 2026-04-22 10:09 | 52.41623 | 16.85081 | 553 ft | 139 kts | 290° |
| 2026-04-22 10:09 | 52.41910 | 16.83579 | 293 ft | 135 kts | 289° |
| 2026-04-22 10:09 | 52.42165 | 16.82295 | 290 ft | 98 kts | 287° |
| 2026-04-22 10:09 | 52.42281 | 16.81707 | 288 ft | 27 kts | 285° |
| 2026-04-22 10:10 | 52.42294 | 16.81409 | 288 ft | 25 kts | 267° |
| 2026-04-22 10:10 | 52.42275 | 16.81228 | 287 ft | 13 kts | 258° |
| 2026-04-22 10:10 | 52.42207 | 16.81164 | 290 ft | 14 kts | 143° |
| 2026-04-22 10:10 | 52.42184 | 16.81317 | 292 ft | 15 kts | 106° |
| 2026-04-22 10:11 | 52.42150 | 16.81498 | 287 ft | 18 kts | 107° |
| 2026-04-22 10:11 | 52.42109 | 16.81710 | 287 ft | 21 kts | 107° |
| 2026-04-22 10:11 | 52.42064 | 16.81947 | 287 ft | 23 kts | 107° |
| 2026-04-22 10:11 | 52.42015 | 16.82212 | 287 ft | 25 kts | 109° |
| 2026-04-22 10:12 | 52.41958 | 16.82500 | 287 ft | 27 kts | 107° |
| 2026-04-22 10:12 | 52.41910 | 16.82759 | 289 ft | 19 kts | 107° |
| 2026-04-22 10:12 | 52.41837 | 16.82915 | 287 ft | 19 kts | 186° |
| 2026-04-22 10:12 | 52.41744 | 16.82863 | 290 ft | 12 kts | 200° |
| 2026-04-22 10:13 | 52.41653 | 16.82849 | 287 ft | 15 kts | 188° |
| 2026-04-22 10:13 | 52.41581 | 16.82823 | 287 ft | 3 kts | 195° |
| 2026-04-22 10:13 | 52.41580 | 16.82822 | 287 ft | 0 kts | 195° |